MMTJ/TIJ METAR and TAF weather

Enter ICAO airport designator
Station Type Date Time Source
MMTJ METAR 2022/01/29 12:40 UTC NOAA

MMTJ 291240Z 12005KT 7SM SKC 15/M12 A3013


Station Type Date Time Source
MMTJ Decoded METAR 2022/01/29 12:40 UTC NOAA

Tijuana International Airport , Mexico (MMTJ) 32-33N 116-58W
Jan 29, 2022 - 07:40 AM EST / 2022.01.29 1240 UTC
Wind: from the ESE (120 degrees) at 6 MPH (5 KT):0
Visibility: 7 mile(s):0
Sky conditions: clear
Temperature: 59 F (15 C)
Dew Point: 10 F (-12 C)
Relative Humidity: 14%
Pressure (altimeter): 30.13 in. Hg (1020 hPa)
ob: MMTJ 291240Z 12005KT 7SM SKC 15/M12 A3013
cycle: 12

Station Type Date Time Source
MMTJ TAF 2022/01/29 12:38 UTC NOAA

TAF MMTJ 291133Z 2912/3018 10005KT 6SM HZ SKC TX21/2921Z TN14/2912Z
FM291800 08010KT P6SM SKC
FM300300 03005KT 6SM HZ SKC
FM301600 24005KT 6SM HZ SKC

Example: see airport list